sensor_id;sensor_type;location;lat;lon;timestamp;temperature;humidity
55064;DHT22;40963;52.168;21.296;2022-10-17T00:01:11;12.40;99.90
55064;DHT22;40963;52.168;21.296;2022-10-17T00:03:38;12.30;99.90
55064;DHT22;40963;52.168;21.296;2022-10-17T00:06:06;12.30;99.90
55064;DHT22;40963;52.168;21.296;2022-10-17T00:08:32;12.30;99.90
55064;DHT22;40963;52.168;21.296;2022-10-17T00:11:03;12.30;99.90
55064;DHT22;40963;52.168;21.296;2022-10-17T00:13:30;12.20;99.90
55064;DHT22;40963;52.168;21.296;2022-10-17T00:15:56;12.20;99.90
55064;DHT22;40963;52.168;21.296;2022-10-17T00:18:22;12.20;99.90
55064;DHT22;40963;52.168;21.296;2022-10-17T00:20:48;12.10;99.90
55064;DHT22;40963;52.168;21.296;2022-10-17T00:23:14;12.00;99.90
55064;DHT22;40963;52.168;21.296;2022-10-17T00:25:39;12.00;99.90
55064;DHT22;40963;52.168;21.296;2022-10-17T00:28:07;12.00;99.90
55064;DHT22;40963;52.168;21.296;2022-10-17T00:30:33;12.00;99.90
55064;DHT22;40963;52.168;21.296;2022-10-17T00:32:59;11.90;99.90
55064;DHT22;40963;52.168;21.296;2022-10-17T00:35:25;11.90;99.90
55064;DHT22;40963;52.168;21.296;2022-10-17T00:37:50;11.90;99.90
55064;DHT22;40963;52.168;21.296;2022-10-17T00:40:16;11.80;99.90
55064;DHT22;40963;52.168;21.296;2022-10-17T00:42:42;11.80;99.90
55064;DHT22;40963;52.168;21.296;2022-10-17T00:45:30;11.80;99.90
55064;DHT22;40963;52.168;21.296;2022-10-17T00:48:01;11.80;99.90
55064;DHT22;40963;52.168;21.296;2022-10-17T00:50:28;11.70;99.90
55064;DHT22;40963;52.168;21.296;2022-10-17T00:52:57;11.70;99.90
55064;DHT22;40963;52.168;21.296;2022-10-17T00:55:28;11.70;99.90
55064;DHT22;40963;52.168;21.296;2022-10-17T00:57:57;11.60;99.90
55064;DHT22;40963;52.168;21.296;2022-10-17T01:00:24;11.60;99.90
55064;DHT22;40963;52.168;21.296;2022-10-17T01:02:49;11.60;99.90
55064;DHT22;40963;52.168;21.296;2022-10-17T01:05:16;11.60;99.90
55064;DHT22;40963;52.168;21.296;2022-10-17T01:07:43;11.60;99.90
55064;DHT22;40963;52.168;21.296;2022-10-17T01:10:09;11.60;99.90
55064;DHT22;40963;52.168;21.296;2022-10-17T01:15:41;11.60;99.90
55064;DHT22;40963;52.168;21.296;2022-10-17T01:21:09;11.50;99.90
55064;DHT22;40963;52.168;21.296;2022-10-17T01:32:16;11.50;99.90
55064;DHT22;40963;52.168;21.296;2022-10-17T01:35:24;11.50;99.90
55064;DHT22;40963;52.168;21.296;2022-10-17T01:37:55;11.50;99.90
55064;DHT22;40963;52.168;21.296;2022-10-17T01:43:48;11.50;99.90
55064;DHT22;40963;52.168;21.296;2022-10-17T01:48:36;11.60;99.90
55064;DHT22;40963;52.168;21.296;2022-10-17T01:51:08;11.60;99.90
55064;DHT22;40963;52.168;21.296;2022-10-17T01:53:42;11.60;99.90
55064;DHT22;40963;52.168;21.296;2022-10-17T01:56:12;11.70;99.90
55064;DHT22;40963;52.168;21.296;2022-10-17T01:59:08;11.70;99.90
55064;DHT22;40963;52.168;21.296;2022-10-17T02:01:32;11.80;99.90
55064;DHT22;40963;52.168;21.296;2022-10-17T02:03:59;11.80;99.90
55064;DHT22;40963;52.168;21.296;2022-10-17T02:06:25;11.80;99.90
55064;DHT22;40963;52.168;21.296;2022-10-17T02:08:51;11.90;99.90
55064;DHT22;40963;52.168;21.296;2022-10-17T02:11:25;11.90;99.90
55064;DHT22;40963;52.168;21.296;2022-10-17T02:27:58;11.80;99.90
55064;DHT22;40963;52.168;21.296;2022-10-17T02:33:12;11.70;99.90
55064;DHT22;40963;52.168;21.296;2022-10-17T02:35:43;11.70;99.90
55064;DHT22;40963;52.168;21.296;2022-10-17T02:38:11;11.60;99.90
55064;DHT22;40963;52.168;21.296;2022-10-17T02:40:37;11.60;99.90
55064;DHT22;40963;52.168;21.296;2022-10-17T02:43:04;11.60;99.90
55064;DHT22;40963;52.168;21.296;2022-10-17T02:45:30;11.60;99.90
55064;DHT22;40963;52.168;21.296;2022-10-17T02:50:50;11.60;99.90
55064;DHT22;40963;52.168;21.296;2022-10-17T02:53:40;11.60;99.90
55064;DHT22;40963;52.168;21.296;2022-10-17T02:56:15;11.60;99.90
55064;DHT22;40963;52.168;21.296;2022-10-17T02:58:42;11.60;99.90
55064;DHT22;40963;52.168;21.296;2022-10-17T03:01:13;11.50;99.90
55064;DHT22;40963;52.168;21.296;2022-10-17T03:03:38;11.50;99.90
55064;DHT22;40963;52.168;21.296;2022-10-17T03:06:07;11.50;99.90
55064;DHT22;40963;52.168;21.296;2022-10-17T03:08:32;11.50;99.90
55064;DHT22;40963;52.168;21.296;2022-10-17T03:10:58;11.50;99.90
55064;DHT22;40963;52.168;21.296;2022-10-17T03:13:23;11.50;99.90
55064;DHT22;40963;52.168;21.296;2022-10-17T03:15:49;11.50;99.90
55064;DHT22;40963;52.168;21.296;2022-10-17T03:18:15;11.50;99.90
55064;DHT22;40963;52.168;21.296;2022-10-17T03:20:40;11.50;99.90
55064;DHT22;40963;52.168;21.296;2022-10-17T03:23:06;11.50;99.90
55064;DHT22;40963;52.168;21.296;2022-10-17T03:25:31;11.50;99.90
55064;DHT22;40963;52.168;21.296;2022-10-17T03:27:58;11.50;99.90
55064;DHT22;40963;52.168;21.296;2022-10-17T03:30:27;11.60;99.90
55064;DHT22;40963;52.168;21.296;2022-10-17T03:32:53;11.60;99.90
55064;DHT22;40963;52.168;21.296;2022-10-17T03:35:19;11.60;99.90
55064;DHT22;40963;52.168;21.296;2022-10-17T03:37:44;11.60;99.90
55064;DHT22;40963;52.168;21.296;2022-10-17T03:40:10;11.60;99.90
55064;DHT22;40963;52.168;21.296;2022-10-17T03:42:36;11.70;99.90
55064;DHT22;40963;52.168;21.296;2022-10-17T03:45:02;11.60;99.90
55064;DHT22;40963;52.168;21.296;2022-10-17T03:47:28;11.70;99.90
55064;DHT22;40963;52.168;21.296;2022-10-17T03:49:54;11.70;99.90
55064;DHT22;40963;52.168;21.296;2022-10-17T03:52:19;11.70;99.90
55064;DHT22;40963;52.168;21.296;2022-10-17T03:54:45;11.70;99.90
55064;DHT22;40963;52.168;21.296;2022-10-17T03:57:10;11.70;99.90
55064;DHT22;40963;52.168;21.296;2022-10-17T03:59:36;11.70;99.90
55064;DHT22;40963;52.168;21.296;2022-10-17T04:02:02;11.60;99.90
55064;DHT22;40963;52.168;21.296;2022-10-17T04:04:27;11.60;99.90
55064;DHT22;40963;52.168;21.296;2022-10-17T04:06:53;11.60;99.90
55064;DHT22;40963;52.168;21.296;2022-10-17T04:09:18;11.60;99.90
55064;DHT22;40963;52.168;21.296;2022-10-17T04:11:44;11.60;99.90
55064;DHT22;40963;52.168;21.296;2022-10-17T04:14:10;11.60;99.90
55064;DHT22;40963;52.168;21.296;2022-10-17T04:16:36;11.60;99.90
55064;DHT22;40963;52.168;21.296;2022-10-17T04:19:01;11.60;99.90
55064;DHT22;40963;52.168;21.296;2022-10-17T04:21:28;11.60;99.90
55064;DHT22;40963;52.168;21.296;2022-10-17T04:23:57;11.60;99.90
55064;DHT22;40963;52.168;21.296;2022-10-17T04:26:23;11.60;99.90
55064;DHT22;40963;52.168;21.296;2022-10-17T04:28:52;11.60;99.90
55064;DHT22;40963;52.168;21.296;2022-10-17T04:31:18;11.60;99.90
55064;DHT22;40963;52.168;21.296;2022-10-17T04:33:47;11.50;99.90
55064;DHT22;40963;52.168;21.296;2022-10-17T04:36:15;11.50;99.90
55064;DHT22;40963;52.168;21.296;2022-10-17T04:38:41;11.60;99.90
55064;DHT22;40963;52.168;21.296;2022-10-17T04:41:10;11.60;99.90
55064;DHT22;40963;52.168;21.296;2022-10-17T04:43:37;11.60;99.90
55064;DHT22;40963;52.168;21.296;2022-10-17T04:46:06;11.70;99.90
55064;DHT22;40963;52.168;21.296;2022-10-17T04:48:32;11.60;99.90
55064;DHT22;40963;52.168;21.296;2022-10-17T04:51:00;11.70;99.90
55064;DHT22;40963;52.168;21.296;2022-10-17T04:53:28;11.70;99.90
55064;DHT22;40963;52.168;21.296;2022-10-17T04:55:55;11.70;99.90
55064;DHT22;40963;52.168;21.296;2022-10-17T04:58:20;11.70;99.90
55064;DHT22;40963;52.168;21.296;2022-10-17T05:00:46;11.80;99.90
55064;DHT22;40963;52.168;21.296;2022-10-17T05:03:12;11.80;99.90
55064;DHT22;40963;52.168;21.296;2022-10-17T05:05:39;11.80;99.90
55064;DHT22;40963;52.168;21.296;2022-10-17T05:08:06;11.80;99.90
55064;DHT22;40963;52.168;21.296;2022-10-17T05:10:40;11.70;99.90
55064;DHT22;40963;52.168;21.296;2022-10-17T05:13:06;11.70;99.90
55064;DHT22;40963;52.168;21.296;2022-10-17T05:15:33;11.70;99.90
55064;DHT22;40963;52.168;21.296;2022-10-17T05:17:58;11.70;99.90
55064;DHT22;40963;52.168;21.296;2022-10-17T05:20:25;11.70;99.90
55064;DHT22;40963;52.168;21.296;2022-10-17T05:22:50;11.70;99.90
55064;DHT22;40963;52.168;21.296;2022-10-17T05:25:16;11.70;99.90
55064;DHT22;40963;52.168;21.296;2022-10-17T05:27:42;11.70;99.90
55064;DHT22;40963;52.168;21.296;2022-10-17T05:30:08;11.70;99.90
55064;DHT22;40963;52.168;21.296;2022-10-17T05:32:34;11.70;99.90
55064;DHT22;40963;52.168;21.296;2022-10-17T05:34:59;11.70;99.90
55064;DHT22;40963;52.168;21.296;2022-10-17T05:37:25;11.60;99.90
55064;DHT22;40963;52.168;21.296;2022-10-17T05:39:53;11.60;99.90
55064;DHT22;40963;52.168;21.296;2022-10-17T05:42:18;11.70;99.90
55064;DHT22;40963;52.168;21.296;2022-10-17T05:44:44;11.70;99.90
55064;DHT22;40963;52.168;21.296;2022-10-17T05:47:10;11.70;99.90
55064;DHT22;40963;52.168;21.296;2022-10-17T05:49:35;11.70;99.90
55064;DHT22;40963;52.168;21.296;2022-10-17T05:52:01;11.70;99.90
55064;DHT22;40963;52.168;21.296;2022-10-17T05:54:26;11.80;99.90
55064;DHT22;40963;52.168;21.296;2022-10-17T05:56:53;11.80;99.90
55064;DHT22;40963;52.168;21.296;2022-10-17T05:59:19;11.90;99.90
55064;DHT22;40963;52.168;21.296;2022-10-17T06:01:44;11.90;99.90
55064;DHT22;40963;52.168;21.296;2022-10-17T06:04:10;12.00;99.90
55064;DHT22;40963;52.168;21.296;2022-10-17T06:06:38;12.00;99.90
55064;DHT22;40963;52.168;21.296;2022-10-17T06:09:04;12.10;99.90
55064;DHT22;40963;52.168;21.296;2022-10-17T06:11:30;12.10;99.90
55064;DHT22;40963;52.168;21.296;2022-10-17T06:13:55;12.10;99.90
55064;DHT22;40963;52.168;21.296;2022-10-17T06:16:21;12.20;99.90
55064;DHT22;40963;52.168;21.296;2022-10-17T06:18:47;12.30;99.90
55064;DHT22;40963;52.168;21.296;2022-10-17T06:21:22;12.30;99.90
55064;DHT22;40963;52.168;21.296;2022-10-17T06:23:48;12.40;99.90
55064;DHT22;40963;52.168;21.296;2022-10-17T06:26:14;12.50;99.90
55064;DHT22;40963;52.168;21.296;2022-10-17T06:28:40;12.50;99.90
55064;DHT22;40963;52.168;21.296;2022-10-17T06:31:07;12.50;99.90
55064;DHT22;40963;52.168;21.296;2022-10-17T06:33:33;12.60;99.90
55064;DHT22;40963;52.168;21.296;2022-10-17T06:35:59;12.60;99.90
55064;DHT22;40963;52.168;21.296;2022-10-17T06:38:25;12.60;99.90
55064;DHT22;40963;52.168;21.296;2022-10-17T06:40:51;12.70;99.90
55064;DHT22;40963;52.168;21.296;2022-10-17T06:43:18;12.80;99.90
55064;DHT22;40963;52.168;21.296;2022-10-17T06:45:47;12.80;99.90
55064;DHT22;40963;52.168;21.296;2022-10-17T06:48:13;12.90;99.90
55064;DHT22;40963;52.168;21.296;2022-10-17T06:50:39;13.00;99.90
55064;DHT22;40963;52.168;21.296;2022-10-17T06:53:04;13.00;99.90
55064;DHT22;40963;52.168;21.296;2022-10-17T06:55:31;13.10;99.90
55064;DHT22;40963;52.168;21.296;2022-10-17T06:57:57;13.20;99.90
55064;DHT22;40963;52.168;21.296;2022-10-17T07:00:23;13.20;99.90
55064;DHT22;40963;52.168;21.296;2022-10-17T07:02:51;13.30;99.90
55064;DHT22;40963;52.168;21.296;2022-10-17T07:05:17;13.40;99.90
55064;DHT22;40963;52.168;21.296;2022-10-17T07:07:44;13.50;99.90
55064;DHT22;40963;52.168;21.296;2022-10-17T07:10:09;13.60;99.90
55064;DHT22;40963;52.168;21.296;2022-10-17T07:12:35;13.70;99.90
55064;DHT22;40963;52.168;21.296;2022-10-17T07:15:01;13.70;99.90
55064;DHT22;40963;52.168;21.296;2022-10-17T07:17:28;13.90;99.90
55064;DHT22;40963;52.168;21.296;2022-10-17T07:19:54;13.90;99.90
55064;DHT22;40963;52.168;21.296;2022-10-17T07:22:19;14.00;99.90
55064;DHT22;40963;52.168;21.296;2022-10-17T07:24:45;14.10;99.90
55064;DHT22;40963;52.168;21.296;2022-10-17T07:27:12;14.20;99.90
55064;DHT22;40963;52.168;21.296;2022-10-17T07:29:37;14.30;99.90
55064;DHT22;40963;52.168;21.296;2022-10-17T07:32:03;14.40;99.90
55064;DHT22;40963;52.168;21.296;2022-10-17T07:34:35;14.50;99.90
55064;DHT22;40963;52.168;21.296;2022-10-17T07:37:01;14.60;99.90
55064;DHT22;40963;52.168;21.296;2022-10-17T07:39:27;14.70;99.90
55064;DHT22;40963;52.168;21.296;2022-10-17T07:41:53;14.80;99.90
55064;DHT22;40963;52.168;21.296;2022-10-17T07:44:18;14.80;99.90
55064;DHT22;40963;52.168;21.296;2022-10-17T07:46:44;14.90;99.90
55064;DHT22;40963;52.168;21.296;2022-10-17T07:49:10;15.00;99.90
55064;DHT22;40963;52.168;21.296;2022-10-17T07:51:35;15.10;99.90
55064;DHT22;40963;52.168;21.296;2022-10-17T07:54:01;15.20;99.90
55064;DHT22;40963;52.168;21.296;2022-10-17T07:56:26;15.20;99.90
55064;DHT22;40963;52.168;21.296;2022-10-17T07:58:54;15.30;99.90
55064;DHT22;40963;52.168;21.296;2022-10-17T08:01:19;15.40;99.90
55064;DHT22;40963;52.168;21.296;2022-10-17T08:03:46;15.40;99.90
55064;DHT22;40963;52.168;21.296;2022-10-17T08:06:13;15.50;99.90
55064;DHT22;40963;52.168;21.296;2022-10-17T08:08:39;15.60;99.90
55064;DHT22;40963;52.168;21.296;2022-10-17T08:11:07;15.70;99.90
55064;DHT22;40963;52.168;21.296;2022-10-17T08:13:33;15.80;99.90
55064;DHT22;40963;52.168;21.296;2022-10-17T08:16:01;15.90;99.90
55064;DHT22;40963;52.168;21.296;2022-10-17T08:18:27;16.00;99.90
55064;DHT22;40963;52.168;21.296;2022-10-17T08:20:53;16.10;99.90
55064;DHT22;40963;52.168;21.296;2022-10-17T08:23:18;16.20;99.90
55064;DHT22;40963;52.168;21.296;2022-10-17T08:25:44;16.30;99.90
55064;DHT22;40963;52.168;21.296;2022-10-17T08:28:09;16.40;99.90
55064;DHT22;40963;52.168;21.296;2022-10-17T08:30:35;16.40;99.90
55064;DHT22;40963;52.168;21.296;2022-10-17T08:33:01;16.60;99.90
55064;DHT22;40963;52.168;21.296;2022-10-17T08:35:26;16.70;99.90
55064;DHT22;40963;52.168;21.296;2022-10-17T08:37:52;16.80;99.90
55064;DHT22;40963;52.168;21.296;2022-10-17T08:40:23;16.90;99.90
55064;DHT22;40963;52.168;21.296;2022-10-17T08:43:20;17.00;99.90
55064;DHT22;40963;52.168;21.296;2022-10-17T08:45:55;17.10;99.90
55064;DHT22;40963;52.168;21.296;2022-10-17T08:48:26;17.20;99.90
55064;DHT22;40963;52.168;21.296;2022-10-17T08:56:28;17.20;99.90
55064;DHT22;40963;52.168;21.296;2022-10-17T08:58:54;17.20;99.90
55064;DHT22;40963;52.168;21.296;2022-10-17T09:09:36;17.60;99.90
55064;DHT22;40963;52.168;21.296;2022-10-17T09:12:21;17.70;99.90
55064;DHT22;40963;52.168;21.296;2022-10-17T09:17:44;18.00;99.90
55064;DHT22;40963;52.168;21.296;2022-10-17T09:20:18;18.10;99.90
55064;DHT22;40963;52.168;21.296;2022-10-17T09:22:55;18.30;99.90
55064;DHT22;40963;52.168;21.296;2022-10-17T09:25:21;18.40;99.90
55064;DHT22;40963;52.168;21.296;2022-10-17T09:28:10;18.50;99.90
55064;DHT22;40963;52.168;21.296;2022-10-17T09:30:58;18.60;99.80
55064;DHT22;40963;52.168;21.296;2022-10-17T09:33:28;18.70;99.60
55064;DHT22;40963;52.168;21.296;2022-10-17T09:35:56;18.80;99.40
55064;DHT22;40963;52.168;21.296;2022-10-17T09:38:27;18.90;99.00
55064;DHT22;40963;52.168;21.296;2022-10-17T09:40:59;18.90;98.50
55064;DHT22;40963;52.168;21.296;2022-10-17T09:43:25;19.00;98.30
55064;DHT22;40963;52.168;21.296;2022-10-17T09:46:08;19.10;98.10
55064;DHT22;40963;52.168;21.296;2022-10-17T09:48:45;19.20;97.70
55064;DHT22;40963;52.168;21.296;2022-10-17T09:51:13;19.30;97.40
55064;DHT22;40963;52.168;21.296;2022-10-17T09:53:43;19.40;97.30
55064;DHT22;40963;52.168;21.296;2022-10-17T09:56:16;19.40;97.00
55064;DHT22;40963;52.168;21.296;2022-10-17T09:58:45;19.50;96.60
55064;DHT22;40963;52.168;21.296;2022-10-17T10:01:26;19.50;96.30
55064;DHT22;40963;52.168;21.296;2022-10-17T10:04:10;19.60;96.20
55064;DHT22;40963;52.168;21.296;2022-10-17T10:06:37;19.70;95.90
55064;DHT22;40963;52.168;21.296;2022-10-17T10:09:04;19.80;95.80
55064;DHT22;40963;52.168;21.296;2022-10-17T10:14:27;19.90;95.20
55064;DHT22;40963;52.168;21.296;2022-10-17T10:16:54;20.00;94.90
55064;DHT22;40963;52.168;21.296;2022-10-17T10:19:38;20.10;94.70
55064;DHT22;40963;52.168;21.296;2022-10-17T10:22:14;20.20;94.30
55064;DHT22;40963;52.168;21.296;2022-10-17T10:24:40;20.20;94.10
55064;DHT22;40963;52.168;21.296;2022-10-17T10:27:12;20.30;94.10
55064;DHT22;40963;52.168;21.296;2022-10-17T10:29:48;20.40;93.80
55064;DHT22;40963;52.168;21.296;2022-10-17T10:32:35;20.50;93.50
55064;DHT22;40963;52.168;21.296;2022-10-17T10:35:05;20.60;93.10
55064;DHT22;40963;52.168;21.296;2022-10-17T10:37:40;20.60;92.70
55064;DHT22;40963;52.168;21.296;2022-10-17T10:40:16;20.70;92.40
55064;DHT22;40963;52.168;21.296;2022-10-17T10:42:46;20.70;92.10
55064;DHT22;40963;52.168;21.296;2022-10-17T10:48:03;20.90;91.40
55064;DHT22;40963;52.168;21.296;2022-10-17T10:50:41;21.00;91.20
55064;DHT22;40963;52.168;21.296;2022-10-17T10:53:32;21.00;90.70
55064;DHT22;40963;52.168;21.296;2022-10-17T11:01:49;21.10;88.70
55064;DHT22;40963;52.168;21.296;2022-10-17T11:07:05;21.10;87.80
55064;DHT22;40963;52.168;21.296;2022-10-17T11:09:51;21.10;87.50
55064;DHT22;40963;52.168;21.296;2022-10-17T11:12:27;21.10;87.40
55064;DHT22;40963;52.168;21.296;2022-10-17T11:15:02;21.10;87.30
55064;DHT22;40963;52.168;21.296;2022-10-17T11:17:35;21.20;87.20
55064;DHT22;40963;52.168;21.296;2022-10-17T11:20:10;21.10;86.60
55064;DHT22;40963;52.168;21.296;2022-10-17T11:22:43;21.10;86.00
55064;DHT22;40963;52.168;21.296;2022-10-17T11:27:36;21.10;85.80
55064;DHT22;40963;52.168;21.296;2022-10-17T11:30:03;21.00;85.80
55064;DHT22;40963;52.168;21.296;2022-10-17T11:32:48;21.10;85.80
55064;DHT22;40963;52.168;21.296;2022-10-17T11:35:29;21.10;85.30
55064;DHT22;40963;52.168;21.296;2022-10-17T11:40:51;21.10;85.30
55064;DHT22;40963;52.168;21.296;2022-10-17T11:43:29;21.20;85.30
55064;DHT22;40963;52.168;21.296;2022-10-17T11:46:13;21.20;85.30
55064;DHT22;40963;52.168;21.296;2022-10-17T11:48:54;21.30;85.20
55064;DHT22;40963;52.168;21.296;2022-10-17T11:51:20;21.40;85.20
55064;DHT22;40963;52.168;21.296;2022-10-17T11:56:27;21.40;85.20
55064;DHT22;40963;52.168;21.296;2022-10-17T11:59:00;21.40;84.80
55064;DHT22;40963;52.168;21.296;2022-10-17T12:01:38;21.50;84.70
55064;DHT22;40963;52.168;21.296;2022-10-17T12:07:13;21.50;84.60
55064;DHT22;40963;52.168;21.296;2022-10-17T12:09:59;21.50;84.50
55064;DHT22;40963;52.168;21.296;2022-10-17T12:12:31;21.50;83.70
55064;DHT22;40963;52.168;21.296;2022-10-17T12:18:00;21.40;83.70
55064;DHT22;40963;52.168;21.296;2022-10-17T12:20:31;21.40;83.90
55064;DHT22;40963;52.168;21.296;2022-10-17T12:25:37;21.40;83.60
55064;DHT22;40963;52.168;21.296;2022-10-17T12:28:29;21.50;83.80
55064;DHT22;40963;52.168;21.296;2022-10-17T12:31:21;21.40;83.60
55064;DHT22;40963;52.168;21.296;2022-10-17T12:33:52;21.50;83.40
55064;DHT22;40963;52.168;21.296;2022-10-17T12:47:27;21.60;82.80
55064;DHT22;40963;52.168;21.296;2022-10-17T12:49:53;21.70;82.30
55064;DHT22;40963;52.168;21.296;2022-10-17T12:57:32;21.80;81.20
55064;DHT22;40963;52.168;21.296;2022-10-17T13:00:04;21.80;80.70
55064;DHT22;40963;52.168;21.296;2022-10-17T13:02:30;21.70;80.70
55064;DHT22;40963;52.168;21.296;2022-10-17T13:05:10;21.70;80.90
55064;DHT22;40963;52.168;21.296;2022-10-17T13:07:40;21.80;81.00
55064;DHT22;40963;52.168;21.296;2022-10-17T13:10:21;21.80;80.30
55064;DHT22;40963;52.168;21.296;2022-10-17T13:12:48;21.80;79.70
55064;DHT22;40963;52.168;21.296;2022-10-17T13:15:18;21.80;79.40
55064;DHT22;40963;52.168;21.296;2022-10-17T13:17:44;21.80;79.30
55064;DHT22;40963;52.168;21.296;2022-10-17T13:20:21;21.80;79.20
55064;DHT22;40963;52.168;21.296;2022-10-17T13:22:49;21.80;79.00
55064;DHT22;40963;52.168;21.296;2022-10-17T13:25:18;21.80;78.80
55064;DHT22;40963;52.168;21.296;2022-10-17T13:27:44;21.80;78.80
55064;DHT22;40963;52.168;21.296;2022-10-17T13:30:31;21.80;78.50
55064;DHT22;40963;52.168;21.296;2022-10-17T13:32:58;21.80;78.20
55064;DHT22;40963;52.168;21.296;2022-10-17T13:37:52;21.70;78.20
55064;DHT22;40963;52.168;21.296;2022-10-17T13:40:25;21.70;78.40
55064;DHT22;40963;52.168;21.296;2022-10-17T13:42:53;21.70;78.60
55064;DHT22;40963;52.168;21.296;2022-10-17T13:45:31;21.70;78.70
55064;DHT22;40963;52.168;21.296;2022-10-17T13:48:04;21.70;79.30
55064;DHT22;40963;52.168;21.296;2022-10-17T13:50:34;21.70;78.50
55064;DHT22;40963;52.168;21.296;2022-10-17T13:55:51;21.60;78.80
55064;DHT22;40963;52.168;21.296;2022-10-17T13:58:17;21.60;79.10
55064;DHT22;40963;52.168;21.296;2022-10-17T14:00:46;21.50;79.50
55064;DHT22;40963;52.168;21.296;2022-10-17T14:03:13;21.50;80.50
55064;DHT22;40963;52.168;21.296;2022-10-17T14:06:06;21.50;80.30
55064;DHT22;40963;52.168;21.296;2022-10-17T14:08:35;21.40;80.60
55064;DHT22;40963;52.168;21.296;2022-10-17T14:11:01;21.40;81.10
55064;DHT22;40963;52.168;21.296;2022-10-17T14:13:31;21.30;81.60
55064;DHT22;40963;52.168;21.296;2022-10-17T14:16:01;21.30;82.10
55064;DHT22;40963;52.168;21.296;2022-10-17T14:18:33;21.30;82.70
55064;DHT22;40963;52.168;21.296;2022-10-17T14:21:00;21.20;83.20
55064;DHT22;40963;52.168;21.296;2022-10-17T14:26:21;21.10;84.10
55064;DHT22;40963;52.168;21.296;2022-10-17T14:28:49;21.10;84.60
55064;DHT22;40963;52.168;21.296;2022-10-17T14:31:25;21.00;85.00
55064;DHT22;40963;52.168;21.296;2022-10-17T14:33:53;20.90;85.50
55064;DHT22;40963;52.168;21.296;2022-10-17T14:36:28;20.90;86.10
55064;DHT22;40963;52.168;21.296;2022-10-17T14:38:54;20.80;86.70
55064;DHT22;40963;52.168;21.296;2022-10-17T14:41:24;20.70;87.20
55064;DHT22;40963;52.168;21.296;2022-10-17T14:44:26;20.70;87.90
55064;DHT22;40963;52.168;21.296;2022-10-17T14:46:59;20.60;88.70
55064;DHT22;40963;52.168;21.296;2022-10-17T14:52:25;20.50;90.10
55064;DHT22;40963;52.168;21.296;2022-10-17T14:54:51;20.30;90.50
55064;DHT22;40963;52.168;21.296;2022-10-17T14:57:23;20.30;90.80
55064;DHT22;40963;52.168;21.296;2022-10-17T14:59:49;20.20;91.20
55064;DHT22;40963;52.168;21.296;2022-10-17T15:02:14;20.20;91.60
55064;DHT22;40963;52.168;21.296;2022-10-17T15:04:40;20.10;91.90
55064;DHT22;40963;52.168;21.296;2022-10-17T15:07:06;20.00;92.30
55064;DHT22;40963;52.168;21.296;2022-10-17T15:09:31;19.90;92.60
55064;DHT22;40963;52.168;21.296;2022-10-17T15:12:09;19.80;92.90
55064;DHT22;40963;52.168;21.296;2022-10-17T15:14:37;19.70;93.30
55064;DHT22;40963;52.168;21.296;2022-10-17T15:17:11;19.70;93.60
55064;DHT22;40963;52.168;21.296;2022-10-17T15:19:38;19.60;93.90
55064;DHT22;40963;52.168;21.296;2022-10-17T15:22:04;19.50;94.20
55064;DHT22;40963;52.168;21.296;2022-10-17T15:24:29;19.50;94.50
55064;DHT22;40963;52.168;21.296;2022-10-17T15:26:55;19.40;94.80
55064;DHT22;40963;52.168;21.296;2022-10-17T15:29:20;19.40;95.00
55064;DHT22;40963;52.168;21.296;2022-10-17T15:31:46;19.30;95.30
55064;DHT22;40963;52.168;21.296;2022-10-17T15:34:11;19.20;95.50
55064;DHT22;40963;52.168;21.296;2022-10-17T15:36:41;19.20;95.80
55064;DHT22;40963;52.168;21.296;2022-10-17T15:39:12;19.10;96.10
55064;DHT22;40963;52.168;21.296;2022-10-17T15:41:38;19.00;96.30
55064;DHT22;40963;52.168;21.296;2022-10-17T15:44:03;18.90;96.60
55064;DHT22;40963;52.168;21.296;2022-10-17T15:46:32;18.90;96.90
55064;DHT22;40963;52.168;21.296;2022-10-17T15:49:02;18.80;97.10
55064;DHT22;40963;52.168;21.296;2022-10-17T15:51:28;18.70;97.20
55064;DHT22;40963;52.168;21.296;2022-10-17T15:53:53;18.70;97.40
55064;DHT22;40963;52.168;21.296;2022-10-17T15:56:35;18.60;97.60
55064;DHT22;40963;52.168;21.296;2022-10-17T15:59:10;18.50;98.10
55064;DHT22;40963;52.168;21.296;2022-10-17T16:01:38;18.50;98.10
55064;DHT22;40963;52.168;21.296;2022-10-17T16:04:04;18.40;98.20
55064;DHT22;40963;52.168;21.296;2022-10-17T16:06:29;18.30;98.40
55064;DHT22;40963;52.168;21.296;2022-10-17T16:08:55;18.20;98.60
55064;DHT22;40963;52.168;21.296;2022-10-17T16:14:15;18.00;99.10
55064;DHT22;40963;52.168;21.296;2022-10-17T16:16:42;17.90;99.40
55064;DHT22;40963;52.168;21.296;2022-10-17T16:19:09;17.80;99.80
55064;DHT22;40963;52.168;21.296;2022-10-17T16:21:36;17.70;99.90
55064;DHT22;40963;52.168;21.296;2022-10-17T16:24:03;17.70;99.90
55064;DHT22;40963;52.168;21.296;2022-10-17T16:26:29;17.60;99.90
55064;DHT22;40963;52.168;21.296;2022-10-17T16:28:56;17.60;99.90
55064;DHT22;40963;52.168;21.296;2022-10-17T16:31:29;17.50;99.90
55064;DHT22;40963;52.168;21.296;2022-10-17T16:33:56;17.50;99.90
55064;DHT22;40963;52.168;21.296;2022-10-17T16:36:22;17.40;99.90
55064;DHT22;40963;52.168;21.296;2022-10-17T16:38:48;17.40;99.90
55064;DHT22;40963;52.168;21.296;2022-10-17T16:41:25;17.30;99.90
55064;DHT22;40963;52.168;21.296;2022-10-17T16:43:53;17.30;99.90
55064;DHT22;40963;52.168;21.296;2022-10-17T16:46:20;17.20;99.90
55064;DHT22;40963;52.168;21.296;2022-10-17T16:48:46;17.20;99.90
55064;DHT22;40963;52.168;21.296;2022-10-17T16:51:12;17.20;99.90
55064;DHT22;40963;52.168;21.296;2022-10-17T16:53:38;17.20;99.90
55064;DHT22;40963;52.168;21.296;2022-10-17T16:56:09;17.10;99.90
55064;DHT22;40963;52.168;21.296;2022-10-17T16:58:35;17.10;99.90
55064;DHT22;40963;52.168;21.296;2022-10-17T17:01:04;17.00;99.90
55064;DHT22;40963;52.168;21.296;2022-10-17T17:03:29;17.00;99.90
55064;DHT22;40963;52.168;21.296;2022-10-17T17:05:55;17.00;99.90
55064;DHT22;40963;52.168;21.296;2022-10-17T17:08:21;16.90;99.90
55064;DHT22;40963;52.168;21.296;2022-10-17T17:10:47;16.90;99.90
55064;DHT22;40963;52.168;21.296;2022-10-17T17:13:16;16.90;99.90
55064;DHT22;40963;52.168;21.296;2022-10-17T17:15:41;16.80;99.90
55064;DHT22;40963;52.168;21.296;2022-10-17T17:18:07;16.70;99.90
55064;DHT22;40963;52.168;21.296;2022-10-17T17:20:33;16.60;99.90
55064;DHT22;40963;52.168;21.296;2022-10-17T17:22:59;16.60;99.90
55064;DHT22;40963;52.168;21.296;2022-10-17T17:25:25;16.50;99.90